createdAt,value
2018-04-16T00:02:49.162Z,94434.00
2018-04-16T00:05:52.480Z,94432.92
2018-04-16T00:08:55.748Z,94434.30
2018-04-16T00:11:59.041Z,94432.53
2018-04-16T00:15:02.309Z,94433.19
2018-04-16T00:18:05.602Z,94439.13
2018-04-16T00:21:08.856Z,94431.61
2018-04-16T00:24:12.128Z,94436.68
2018-04-16T00:27:15.401Z,94429.33
2018-04-16T00:30:19.436Z,94435.39
2018-04-16T00:33:28.282Z,94432.16
2018-04-16T00:36:37.033Z,94436.33
2018-04-16T00:39:45.700Z,94438.83
2018-04-16T00:42:55.359Z,94445.34
2018-04-16T00:46:04.210Z,94444.48
2018-04-16T00:49:13.078Z,94446.22
2018-04-16T00:52:21.769Z,94448.88
2018-04-16T00:55:30.487Z,94453.27
2018-04-16T00:58:39.370Z,94448.75
2018-04-16T01:01:49.036Z,94455.79
2018-04-16T01:04:58.523Z,94453.73
2018-04-16T01:08:07.367Z,94451.11
2018-04-16T01:11:16.078Z,94446.90
2018-04-16T01:18:05.802Z,94449.39
2018-04-16T01:21:14.604Z,94442.34
2018-04-16T01:24:23.419Z,94446.33
2018-04-16T01:31:10.450Z,94460.69
2018-04-16T01:34:19.178Z,94462.88
2018-04-16T01:37:28.003Z,94465.97
2018-04-16T01:40:36.741Z,94466.61
2018-04-16T01:43:45.691Z,94468.50
2018-04-16T01:46:54.545Z,94467.17
2018-04-16T01:50:03.697Z,94469.23
2018-04-16T01:53:12.449Z,94468.85
2018-04-16T01:59:56.912Z,94472.59
2018-04-16T02:03:06.373Z,94473.62
2018-04-16T02:06:15.066Z,94480.11
2018-04-16T02:09:23.860Z,94477.66
2018-04-16T02:12:32.601Z,94477.45
2018-04-16T02:15:41.289Z,94476.84
2018-04-16T02:18:50.110Z,94479.59
2018-04-16T02:21:59.000Z,94476.33
2018-04-16T02:25:07.857Z,94477.23
2018-04-16T02:28:16.471Z,94475.89
2018-04-16T02:31:25.356Z,94482.43
2018-04-16T02:34:34.038Z,94489.09
2018-04-16T02:37:42.722Z,94494.41
2018-04-16T02:44:28.937Z,94499.36
2018-04-16T02:47:37.632Z,94499.58
2018-04-16T02:50:46.447Z,94491.36
2018-04-16T02:53:55.155Z,94489.98
2018-04-16T02:57:04.606Z,94497.07
2018-04-16T03:00:13.320Z,94500.59
2018-04-16T03:03:22.007Z,94498.06
2018-04-16T03:06:30.887Z,94499.31
2018-04-16T03:09:40.122Z,94503.47
2018-04-16T03:16:31.520Z,94499.13
2018-04-16T03:19:40.186Z,94502.95
2018-04-16T03:22:49.946Z,94505.66
2018-04-16T03:25:58.767Z,94498.65
2018-04-16T03:29:07.478Z,94499.68
2018-04-16T03:32:16.947Z,94508.45
2018-04-16T03:35:25.575Z,94509.35
2018-04-16T03:42:10.674Z,94515.30
2018-04-16T03:45:19.498Z,94520.31
2018-04-16T03:48:28.384Z,94516.88
2018-04-16T03:51:34.257Z,94507.93
2018-04-16T03:54:38.281Z,94515.74
2018-04-16T03:57:41.582Z,94529.58
2018-04-16T04:00:44.833Z,94533.53
2018-04-16T04:03:48.170Z,94535.91
2018-04-16T04:06:51.471Z,94537.08
2018-04-16T04:10:01.323Z,94539.73
2018-04-16T04:13:05.386Z,94545.22
2018-04-16T04:16:08.643Z,94549.99
2018-04-16T04:19:12.694Z,94548.45
2018-04-16T04:22:16.725Z,94551.45
2018-04-16T04:25:37.789Z,94547.52
2018-04-16T04:32:25.880Z,94552.32
2018-04-16T04:35:29.181Z,94559.02
2018-04-16T04:38:32.538Z,94561.91
2018-04-16T04:41:35.797Z,94556.64
2018-04-16T04:44:39.606Z,94554.99
2018-04-16T04:47:42.862Z,94559.57
2018-04-16T04:50:46.147Z,94562.30
2018-04-16T04:53:51.188Z,94565.34
2018-04-16T04:56:55.211Z,94575.38
2018-04-16T04:59:58.758Z,94589.16
2018-04-16T05:03:02.812Z,94585.12
2018-04-16T05:06:06.931Z,94583.97
2018-04-16T05:09:11.479Z,94594.94
2018-04-16T05:12:14.757Z,94597.94
2018-04-16T05:15:18.037Z,94603.09
2018-04-16T05:18:22.093Z,94605.41
2018-04-16T05:21:25.356Z,94610.17
2018-04-16T05:24:29.394Z,94607.85
2018-04-16T05:27:33.421Z,94603.86
2018-04-16T05:30:36.722Z,94608.80
2018-04-16T05:33:39.990Z,94617.31
2018-04-16T05:36:44.172Z,94613.10
2018-04-16T05:39:47.488Z,94616.83
2018-04-16T05:42:50.797Z,94622.44
2018-04-16T05:45:54.079Z,94622.41
2018-04-16T05:48:57.350Z,94630.85
2018-04-16T05:52:00.648Z,94632.45
2018-04-16T05:55:03.913Z,94640.05
2018-04-16T05:58:07.218Z,94636.77
2018-04-16T06:01:10.484Z,94643.89
2018-04-16T06:04:14.517Z,94644.47
2018-04-16T06:07:20.272Z,94648.24
2018-04-16T06:10:23.546Z,94649.20
2018-04-16T06:13:26.831Z,94650.68
2018-04-16T06:16:30.082Z,94644.81
2018-04-16T06:19:33.339Z,94652.88
2018-04-16T06:22:37.374Z,94657.40
2018-04-16T06:25:41.440Z,94655.61
2018-04-16T06:28:44.718Z,94667.70
2018-04-16T06:31:47.985Z,94665.70
2018-04-16T06:34:52.014Z,94669.38
2018-04-16T06:37:55.281Z,94674.15
2018-04-16T06:40:58.588Z,94679.59
2018-04-16T06:44:02.710Z,94671.36
2018-04-16T06:47:06.006Z,94680.84
2018-04-16T06:50:09.365Z,94682.59
2018-04-16T06:53:12.726Z,94683.90
2018-04-16T06:56:16.733Z,94690.28
2018-04-16T06:59:20.018Z,94689.09
2018-04-16T07:02:23.355Z,94691.53
2018-04-16T07:05:26.626Z,94693.41
2018-04-16T07:08:29.908Z,94696.72
2018-04-16T07:11:33.173Z,94707.86
2018-04-16T07:14:36.426Z,94712.83
2018-04-16T07:17:39.699Z,94715.83
2018-04-16T07:20:43.008Z,94716.08
2018-04-16T07:23:46.293Z,94721.49
2018-04-16T07:26:50.372Z,94726.15
2018-04-16T07:29:53.638Z,94722.17
2018-04-16T07:32:56.906Z,94732.97
2018-04-16T07:36:00.171Z,94737.91
2018-04-16T07:39:03.442Z,94732.66
2018-04-16T07:42:06.716Z,94740.26
2018-04-16T07:45:09.993Z,94737.09
2018-04-16T07:48:13.282Z,94738.03
2018-04-16T07:51:17.314Z,94736.82
2018-04-16T07:54:20.630Z,94744.73
2018-04-16T07:57:23.893Z,94744.70
2018-04-16T08:00:27.170Z,94750.66
2018-04-16T08:03:30.434Z,94751.87
2018-04-16T08:06:33.708Z,94748.35
2018-04-16T08:09:37.006Z,94751.25
2018-04-16T08:12:40.294Z,94760.52
2018-04-16T08:15:44.333Z,94756.52
2018-04-16T08:18:47.711Z,94759.66
2018-04-16T08:21:51.745Z,94753.89
2018-04-16T08:24:55.028Z,94762.41
2018-04-16T08:27:59.056Z,94764.36
2018-04-16T08:31:02.337Z,94759.26
2018-04-16T08:34:05.619Z,94763.22
2018-04-16T08:37:08.882Z,94767.28
2018-04-16T08:40:12.155Z,94768.97
2018-04-16T08:43:15.428Z,94768.45
2018-04-16T08:46:19.464Z,94763.80
2018-04-16T08:49:22.767Z,94772.03
2018-04-16T08:52:26.040Z,94772.59
2018-04-16T08:55:29.322Z,94781.62
2018-04-16T08:58:33.414Z,94777.30
2018-04-16T09:01:36.680Z,94785.27
2018-04-16T09:04:39.954Z,94785.13
2018-04-16T09:07:44.468Z,94792.87
2018-04-16T09:10:48.509Z,94796.06
2018-04-16T09:13:51.786Z,94799.52
2018-04-16T09:16:55.829Z,94805.66
2018-04-16T09:19:59.124Z,94807.88
2018-04-16T09:23:02.395Z,94816.66
2018-04-16T09:26:06.424Z,94818.01
2018-04-16T09:29:09.707Z,94817.05
2018-04-16T09:32:13.757Z,94819.94
2018-04-16T09:35:17.039Z,94825.08
2018-04-16T09:38:20.307Z,94825.25
2018-04-16T09:41:24.338Z,94830.66
2018-04-16T09:44:27.627Z,94836.13
2018-04-16T09:47:31.659Z,94837.43
2018-04-16T09:50:34.939Z,94840.02
2018-04-16T09:53:38.970Z,94838.67
2018-04-16T09:56:42.251Z,94843.60
2018-04-16T09:59:45.554Z,94846.94
2018-04-16T10:02:55.201Z,94845.45
2018-04-16T10:05:59.246Z,94843.37
2018-04-16T10:09:02.513Z,94850.39
2018-04-16T10:12:06.537Z,94848.37
2018-04-16T10:15:09.819Z,94852.34
2018-04-16T10:18:14.140Z,94847.30
2018-04-16T10:21:18.194Z,94853.63
2018-04-16T10:24:21.459Z,94852.95
2018-04-16T10:27:25.480Z,94848.09
2018-04-16T10:30:28.750Z,94847.80
2018-04-16T10:33:32.016Z,94844.56
2018-04-16T10:36:35.317Z,94846.71
2018-04-16T10:39:38.569Z,94846.45
2018-04-16T10:42:41.844Z,94841.80
2018-04-16T10:45:45.889Z,94851.52
2018-04-16T10:48:49.154Z,94852.62
2018-04-16T10:51:52.468Z,94855.66
2018-04-16T10:54:56.498Z,94857.17
2018-04-16T10:57:59.934Z,94853.63
2018-04-16T11:01:03.209Z,94858.18
2018-04-16T11:04:07.281Z,94859.73
2018-04-16T11:07:10.554Z,94855.98
2018-04-16T11:10:13.832Z,94858.29
2018-04-16T11:13:17.114Z,94854.33
2018-04-16T11:16:20.391Z,94860.30
2018-04-16T11:19:23.662Z,94863.70
2018-04-16T11:22:27.113Z,94857.34
2018-04-16T11:25:30.397Z,94859.64
2018-04-16T11:28:33.683Z,94859.32
2018-04-16T11:31:37.716Z,94861.28
2018-04-16T11:34:40.987Z,94876.11
2018-04-16T11:37:44.610Z,94881.72
2018-04-16T11:40:48.039Z,94878.34
2018-04-16T11:43:51.300Z,94881.71
2018-04-16T11:46:55.327Z,94887.18
2018-04-16T11:49:58.618Z,94880.38
2018-04-16T11:53:02.798Z,94882.97
2018-04-16T11:56:06.058Z,94886.31
2018-04-16T11:59:09.326Z,94892.87
2018-04-16T12:02:13.393Z,94898.77
2018-04-16T12:05:16.642Z,94903.61
2018-04-16T12:08:19.933Z,94895.15
2018-04-16T12:14:33.501Z,94898.98
2018-04-16T12:17:36.810Z,94900.90
2018-04-16T12:20:40.087Z,94905.39
2018-04-16T12:23:44.111Z,94905.15
2018-04-16T12:26:47.363Z,94906.36
2018-04-16T12:29:50.692Z,94907.63
2018-04-16T12:32:54.722Z,94914.37
2018-04-16T12:35:58.020Z,94915.38
2018-04-16T12:39:01.304Z,94912.69
2018-04-16T12:42:05.343Z,94914.17
2018-04-16T12:45:08.651Z,94918.59
2018-04-16T12:48:11.934Z,94919.92
2018-04-16T12:51:15.195Z,94925.63
2018-04-16T12:54:18.472Z,94923.80
2018-04-16T12:57:21.743Z,94926.23
2018-04-16T13:00:25.033Z,94930.77
2018-04-16T13:03:28.293Z,94936.61
2018-04-16T13:06:32.332Z,94934.67
2018-04-16T13:09:35.833Z,94937.88
2018-04-16T13:12:39.098Z,94931.48
2018-04-16T13:15:43.225Z,94925.58
2018-04-16T13:18:47.264Z,94921.12
2018-04-16T13:21:50.552Z,94919.74
2018-04-16T13:24:53.819Z,94915.20
2018-04-16T13:27:57.106Z,94925.15
2018-04-16T13:31:00.374Z,94922.69
2018-04-16T13:34:03.628Z,94930.59
2018-04-16T13:37:07.799Z,94928.02
2018-04-16T13:40:11.105Z,94928.42
2018-04-16T13:43:14.366Z,94930.30
2018-04-16T13:46:17.650Z,94933.70
2018-04-16T13:49:21.698Z,94927.56
2018-04-16T13:52:24.976Z,94933.08
2018-04-16T13:55:28.326Z,94935.44
2018-04-16T13:58:31.627Z,94934.60
2018-04-16T14:01:35.712Z,94941.34
2018-04-16T14:04:39.108Z,94938.85
2018-04-16T14:07:42.420Z,94943.20
2018-04-16T14:10:45.855Z,94943.59
2018-04-16T14:13:49.112Z,94948.67
2018-04-16T14:16:52.591Z,94950.08
2018-04-16T14:19:55.891Z,94949.70
2018-04-16T14:22:59.155Z,94949.39
2018-04-16T14:26:02.456Z,94947.94
2018-04-16T14:29:06.506Z,94956.47
2018-04-16T14:32:09.792Z,94959.62
2018-04-16T14:35:13.806Z,94954.47
2018-04-16T14:38:17.702Z,94966.28
2018-04-16T14:41:21.410Z,94960.98
2018-04-16T14:44:26.521Z,94966.31
2018-04-16T14:47:30.102Z,94962.42
2018-04-16T14:50:33.454Z,94968.95
2018-04-16T14:53:37.641Z,94971.78
2018-04-16T14:56:41.829Z,94978.63
2018-04-16T14:59:46.059Z,94977.20
2018-04-16T15:02:49.635Z,94982.09
2018-04-16T15:05:52.994Z,94975.81
2018-04-16T15:08:56.383Z,94980.63
2018-04-16T15:11:59.647Z,94985.27
2018-04-16T15:15:02.925Z,94986.13
2018-04-16T15:18:07.598Z,94989.73
2018-04-16T15:21:10.854Z,94986.73
2018-04-16T15:24:14.259Z,94987.98
2018-04-16T15:27:18.462Z,94989.97
2018-04-16T15:30:22.551Z,94990.30
2018-04-16T15:33:25.913Z,94994.68
2018-04-16T15:36:29.186Z,94991.30
2018-04-16T15:39:32.529Z,94992.77
2018-04-16T15:42:35.872Z,94998.70
2018-04-16T15:45:39.265Z,94996.51
2018-04-16T15:48:44.011Z,94990.52
2018-04-16T15:51:47.917Z,94989.42
2018-04-16T15:54:51.198Z,94988.48
2018-04-16T15:57:54.466Z,94992.78
2018-04-16T16:00:57.776Z,95002.64
2018-04-16T16:04:01.049Z,94995.77
2018-04-16T16:07:05.299Z,95001.00
2018-04-16T16:10:08.558Z,94998.55
2018-04-16T16:13:11.831Z,95004.64
2018-04-16T16:16:15.102Z,95004.75
2018-04-16T16:19:19.135Z,95009.98
2018-04-16T16:22:22.407Z,95012.70
2018-04-16T16:25:25.689Z,95014.70
2018-04-16T16:28:28.951Z,95016.09
2018-04-16T16:31:32.246Z,95020.83
2018-04-16T16:34:35.597Z,95017.87
2018-04-16T16:37:38.827Z,95016.97
2018-04-16T16:40:42.849Z,95021.33
2018-04-16T16:43:46.183Z,95022.39
2018-04-16T16:46:49.508Z,95023.02
2018-04-16T16:50:12.524Z,95028.67
2018-04-16T16:53:15.942Z,95035.89
2018-04-16T16:56:19.264Z,95041.14
2018-04-16T16:59:22.562Z,95043.05
2018-04-16T17:02:26.582Z,95042.02
2018-04-16T17:05:29.804Z,95052.63
2018-04-16T17:08:33.891Z,95054.43
2018-04-16T17:11:37.226Z,95050.25
2018-04-16T17:14:40.566Z,95055.52
2018-04-16T17:17:45.610Z,95063.36
2018-04-16T17:20:49.653Z,95062.69
2018-04-16T17:23:52.927Z,95061.69
2018-04-16T17:26:56.225Z,95066.16
2018-04-16T17:29:59.566Z,95070.36
2018-04-16T17:33:02.876Z,95074.75
2018-04-16T17:36:06.275Z,95075.39
2018-04-16T17:39:21.096Z,95084.27
2018-04-16T17:42:24.470Z,95086.32
2018-04-16T17:45:27.778Z,95084.56
2018-04-16T17:48:31.948Z,95084.76
2018-04-16T17:51:35.965Z,95100.10
2018-04-16T17:54:40.011Z,95098.67
2018-04-16T17:57:43.299Z,95098.84
2018-04-16T18:00:46.561Z,95102.83
2018-04-16T18:03:49.839Z,95108.22
2018-04-16T18:06:53.239Z,95117.95
2018-04-16T18:09:56.587Z,95121.95
2018-04-16T18:13:00.640Z,95124.27
2018-04-16T18:16:04.266Z,95123.00
2018-04-16T18:19:09.014Z,95131.48
2018-04-16T18:22:13.383Z,95138.31
2018-04-16T18:25:16.653Z,95141.14
2018-04-16T18:28:20.002Z,95145.81
2018-04-16T18:31:23.278Z,95149.97
2018-04-16T18:34:27.359Z,95159.69
2018-04-16T18:37:31.279Z,95157.91
2018-04-16T18:40:34.579Z,95165.05
2018-04-16T18:43:37.868Z,95166.31
2018-04-16T18:46:41.158Z,95173.12
2018-04-16T18:49:44.426Z,95171.41
2018-04-16T18:52:47.725Z,95180.37
2018-04-16T18:55:51.069Z,95181.63
2018-04-16T18:58:55.079Z,95192.15
2018-04-16T19:01:58.478Z,95197.77
2018-04-16T19:05:01.749Z,95206.47
2018-04-16T19:08:05.137Z,95206.53
2018-04-16T19:11:08.466Z,95213.41
2018-04-16T19:14:11.768Z,95218.73
2018-04-16T19:17:15.040Z,95226.04
2018-04-16T19:20:37.792Z,95231.49
2018-04-16T19:23:42.512Z,95235.58
2018-04-16T19:26:51.300Z,95230.52
2018-04-16T19:29:54.630Z,95228.14
2018-04-16T19:33:03.359Z,95233.10
2018-04-16T19:36:06.627Z,95230.17
2018-04-16T19:39:14.261Z,95237.23
2018-04-16T19:42:24.073Z,95242.56
2018-04-16T19:45:27.785Z,95246.09
2018-04-16T19:48:40.059Z,95244.34
2018-04-16T19:51:43.347Z,95239.72
2018-04-16T19:54:46.650Z,95243.80
2018-04-16T19:57:55.513Z,95244.73
2018-04-16T20:00:58.819Z,95253.13
2018-04-16T20:04:02.113Z,95256.33
2018-04-16T20:07:07.567Z,95254.93
2018-04-16T20:10:13.751Z,95256.66
2018-04-16T20:13:17.029Z,95255.84
2018-04-16T20:16:21.373Z,95250.61
2018-04-16T20:19:25.452Z,95255.93
2018-04-16T20:22:39.973Z,95264.84
2018-04-16T20:25:43.247Z,95264.23
2018-04-16T20:28:46.543Z,95261.70
2018-04-16T20:31:49.942Z,95269.13
2018-04-16T20:34:54.380Z,95264.23
2018-04-16T20:37:57.714Z,95267.73
2018-04-16T20:41:01.299Z,95278.09
2018-04-16T20:44:04.634Z,95278.44
2018-04-16T20:47:08.767Z,95284.55
2018-04-16T20:50:12.819Z,95286.30
2018-04-16T20:53:16.238Z,95294.35
2018-04-16T20:56:19.713Z,95292.95
2018-04-16T20:59:23.046Z,95302.41
2018-04-16T21:02:26.348Z,95305.44
2018-04-16T21:05:29.755Z,95304.50
2018-04-16T21:11:40.974Z,95305.66
2018-04-16T21:14:44.333Z,95306.80
2018-04-16T21:17:47.652Z,95311.38
2018-04-16T21:20:50.974Z,95312.41
2018-04-16T21:23:55.109Z,95308.45
2018-04-16T21:26:59.286Z,95316.91
2018-04-16T21:30:02.630Z,95320.55
2018-04-16T21:33:05.986Z,95325.05
2018-04-16T21:36:09.301Z,95320.26
2018-04-16T21:39:12.625Z,95320.19
2018-04-16T21:42:16.704Z,95322.76
2018-04-16T21:45:20.058Z,95328.52
2018-04-16T21:48:23.362Z,95329.08
2018-04-16T21:51:26.696Z,95331.78
2018-04-16T21:54:30.030Z,95333.94
2018-04-16T21:57:34.124Z,95337.67
2018-04-16T22:00:37.447Z,95337.91
2018-04-16T22:03:41.835Z,95339.33
2018-04-16T22:06:45.151Z,95338.26
2018-04-16T22:09:48.472Z,95340.71
2018-04-16T22:12:51.820Z,95344.59
2018-04-16T22:15:55.146Z,95351.58
2018-04-16T22:18:58.459Z,95355.14
2018-04-16T22:22:01.803Z,95358.00
2018-04-16T22:25:05.118Z,95366.09
2018-04-16T22:28:09.203Z,95364.34
2018-04-16T22:31:13.229Z,95363.71
2018-04-16T22:34:16.544Z,95370.56
2018-04-16T22:37:19.872Z,95371.70
2018-04-16T22:40:23.217Z,95372.83
2018-04-16T22:43:26.559Z,95376.43
2018-04-16T22:46:29.925Z,95379.52
2018-04-16T22:49:33.242Z,95383.55
2018-04-16T22:52:48.629Z,95380.73
2018-04-16T22:55:52.917Z,95387.69
2018-04-16T22:58:56.244Z,95390.97
2018-04-16T23:02:14.376Z,95400.91
2018-04-16T23:05:17.977Z,95402.22
2018-04-16T23:08:21.319Z,95403.91
2018-04-16T23:11:24.779Z,95408.27
2018-04-16T23:14:28.348Z,95407.34
2018-04-16T23:17:33.214Z,95408.52
2018-04-16T23:20:36.547Z,95415.40
2018-04-16T23:23:39.934Z,95417.55
2018-04-16T23:26:43.264Z,95419.94
2018-04-16T23:29:46.609Z,95418.44
2018-04-16T23:32:50.059Z,95424.05
2018-04-16T23:35:53.399Z,95427.25
2018-04-16T23:38:57.469Z,95429.27
2018-04-16T23:42:00.786Z,95429.95
2018-04-16T23:45:04.107Z,95436.86
2018-04-16T23:48:08.343Z,95433.81
2018-04-16T23:51:11.664Z,95440.46
2018-04-16T23:54:14.999Z,95445.59
2018-04-16T23:57:18.320Z,95452.38
